NCAR-RAP Real-Time Weather Data

Output produced by METARs form (14 October 2019  23:47 UTC)
found at http://weather.rap.ucar.edu/surface/
 
KBHM 142253Z 34005KT 10SM BKN070 OVC250 21/12 A3011 RMK AO2 SLP191 T02060122 $
KBHM 142153Z 00000KT 10SM BKN070 OVC250 23/09 A3010 RMK AO2 SLP189 T02280094 $
KBHM 142053Z 23003KT 10SM SCT065 BKN150 23/11 A3010 RMK AO2 SLP189 T02280106 56015 $
KBHM 141953Z 00000KT 10SM BKN050 22/11 A3011 RMK AO2 SLP192 T02170106 $
KBHM 141853Z 00000KT 10SM BKN060 OVC070 22/10 A3012 RMK AO2 SLP196 T02220100 $
KBHM 141753Z COR 00000KT 10SM OVC055 21/08 A3015 RMK AO2 SLP205 T02110083 10211 20122 58009 $
KBHM 141653Z 06003KT 10SM OVC046 19/08 A3017 RMK AO2 SLP211 T01890083 $
KBHM 141553Z 04004KT 10SM OVC055 18/08 A3018 RMK AO2 SLP215 T01780078 $
KBHM 141453Z 08003KT 10SM BKN055 16/09 A3018 RMK AO2 SLP215 T01610094 50009 $
KBHM 141353Z 05003KT 10SM BKN050 BKN060 14/10 A3018 RMK AO2 SLP217 T01440100 $
KBHM 141253Z 00000KT 10SM OVC070 13/09 A3016 RMK AO2 SLP210 T01280094 $
KBHM 141153Z 04003KT 10SM OVC055 12/09 A3015 RMK AO2 SLP207 70018 T01220094 10122 20117 53011 $
KBHM 141053Z 00000KT 10SM OVC055 12/09 A3014 RMK AO2 SLP203 T01220094 $
KBHM 140953Z 05003KT 10SM OVC050 12/09 A3012 RMK AO2 SLP196 T01220094 $
KBHM 140853Z 35003KT 10SM BKN060 OVC070 12/09 A3011 RMK AO2 SLP195 T01220094 51001 $
KBHM 140753Z 36003KT 10SM OVC065 12/09 A3011 RMK AO2 SLP194 T01220094 $
KBHM 140653Z 00000KT 10SM OVC070 12/09 A3011 RMK AO2 SLP195 T01220094 $
KBHM 140553Z 03003KT 10SM OVC070 12/10 A3011 RMK AO2 SLP192 60006 T01170100 10128 20117 402000117 56004 $
KBHM 140453Z 31003KT 10SM SCT150 12/11 A3011 RMK AO2 SLP193 T01220111 $
KBHM 140353Z 00000KT 10SM SCT150 13/11 A3010 RMK AO2 SLP187 T01280106 $
KBHM 140253Z VRB03KT 10SM FEW025 SCT100 OVC150 13/10 A3012 RMK AO2 SLP197 60006 T01280100 55000 $
KBHM 140153Z 00000KT 10SM FEW075 BKN100 OVC120 13/11 A3010 RMK AO2 RAE52 SLP190 P0006 T01280106 $
KBHM 140053Z 00000KT 10SM -RA BKN110 13/10 A3012 RMK AO2 SLP198 P0000 T01280100 $
KBHM 132353Z 31004KT 10SM -RA OVC110 13/10 A3013 RMK AO2 RAE2255B51 SLP198 P0000 60012 T01280100 10194 20128 51009 $
KBHM 132253Z 23009KT 10SM -RA SCT035 BKN043 OVC110 13/09 A3012 RMK AO2 RAB01 SLP196 P0001 T01280094 $
KBHM 132153Z 26006KT 10SM FEW019 BKN070 OVC110 13/09 A3011 RMK AO2 RAE52 SLP194 P0006 T01330094 $
KBHM 132053Z 30007KT 10SM -RA BKN110 OVC150 15/12 A3010 RMK AO2 PRESRR SLP189 P0002 60005 T01500117 55001 $
KBHM 131953Z 05003KT 10SM -RA OVC110 16/11 A3007 RMK AO2 SLP177 P0003 T01560106 $
KBHM 131853Z 31004KT 10SM -RA FEW070 BKN110 OVC140 18/09 A3010 RMK AO2 RAB44 SLP189 P0000 T01780089 $
KBHM 131753Z 29007KT 10SM FEW035 BKN140 OVC200 19/08 A3010 RMK AO2 SLP188 T01940078 10200 20150 56001 $
KBHM 131653Z 29004KT 10SM BKN036 19/08 A3011 RMK AO2 SLP191 T01890083 $
KBHM 131553Z 00000KT 10SM BKN035 18/08 A3009 RMK AO2 SLP186 T01830078 $
KBHM 131453Z 00000KT 10SM OVC031 18/09 A3010 RMK AO2 SLP189 T01780089 50001 $
KBHM 131353Z 00000KT 10SM OVC025 16/09 A3011 RMK AO2 SLP191 T01610094 $
KBHM 131253Z 34003KT 10SM OVC022 16/09 A3010 RMK AO2 SLP188 T01560089 $
KBHM 131220Z 00000KT 10SM OVC027 16/09 A3009 RMK AO2 T01560089 $
KBHM 131210Z 00000KT 10SM SCT023 OVC030 15/08 A3009 RMK AO2 T01500083 $
KBHM 131153Z 35003KT 10SM OVC022 15/08 A3009 RMK AO2 SLP184 T01500083 10161 20144 51015 $
KBHM 131053Z 00000KT 10SM OVC025 15/08 A3007 RMK AO2 SLP179 T01500083 $
KBHM 130953Z 00000KT 10SM OVC026 15/08 A3006 RMK AO2 SLP175 T01500083 $
KBHM 130929Z 36004KT 10SM OVC028 15/08 A3005 RMK AO2 T01500083 $
KBHM 130853Z 36003KT 10SM SCT032 BKN042 15/08 A3004 RMK AO2 SLP169 T01500083 53001 $
KBHM 130753Z 32004KT 10SM OVC042 16/08 A3004 RMK AO2 SLP168 T01560078 $
KBHM 130653Z 35003KT 10SM OVC039 16/08 A3004 RMK AO2 SLP167 T01610078 $
KBHM 130553Z 36003KT 10SM BKN043 OVC055 16/06 A3004 RMK AO2 SLP169 T01610061 10183 20150 402110133 58014 $
KBHM 130453Z 00000KT 10SM FEW042 OVC050 16/07 A3006 RMK AO2 SLP173 T01610067 $
KBHM 130353Z 00000KT 10SM OVC045 16/08 A3008 RMK AO2 SLP180 T01610078 $
KBHM 130253Z 00000KT 10SM OVC046 15/09 A3008 RMK AO2 SLP184 T01500089 50000 $
KBHM 130153Z 00000KT 10SM FEW047 16/08 A3009 RMK AO2 SLP187 T01610078 $
KBHM 130053Z 00000KT 10SM BKN047 17/11 A3009 RMK AO2 SLP186 T01670106 $
KBHM 122353Z 00000KT 10SM BKN050 18/09 A3008 RMK AO2 SLP183 T01830089 10189 20161 56007 $